Time;durP1;ratioP1;P1;durP2;ratioP2;P2;SDS_P1;SDS_P2;PMS_P1;PMS_P2;Temp;Humidity;BMP_temperature;BMP_pressure;BME280_temperature;BME280_humidity;BME280_pressure;Samples;Min_cycle;Max_cycle;Signal;HPM_P1;HPM_P2
2022/07/22 00:01:43;;;;;;;16.55;2.50;;;;;;;21.61;60.30;102196.75;5026907;28;20025;-75
2022/07/22 00:04:09;;;;;;;10.43;2.53;;;;;;;21.68;60.44;102197.31;5028173;28;20026;-76
2022/07/22 00:06:34;;;;;;;18.80;3.25;;;;;;;21.70;60.66;102189.66;5026845;28;20036;-75
2022/07/22 00:09:00;;;;;;;8.13;2.70;;;;;;;22.03;59.32;102186.59;5027521;28;20547;-75
2022/07/22 00:11:25;;;;;;;10.77;2.25;;;;;;;21.71;59.99;102189.44;5027537;28;20072;-74
2022/07/22 00:13:50;;;;;;;10.52;2.88;;;;;;;21.56;60.35;102189.31;5027711;28;20041;-75
2022/07/22 00:16:16;;;;;;;14.60;2.88;;;;;;;22.25;58.01;102191.84;5028557;28;20033;-75
2022/07/22 00:18:41;;;;;;;6.68;2.63;;;;;;;21.92;59.51;102187.63;5027975;28;20059;-75
2022/07/22 00:21:07;;;;;;;14.77;3.00;;;;;;;21.81;59.29;102184.03;5029419;28;20037;-76
2022/07/22 00:23:32;;;;;;;7.18;2.40;;;;;;;21.77;58.52;102188.34;5027586;28;20100;-77
2022/07/22 00:25:58;;;;;;;7.53;2.13;;;;;;;22.11;57.91;102182.50;5026840;28;20115;-75
2022/07/22 00:28:23;;;;;;;14.20;2.95;;;;;;;22.49;56.03;102176.53;5028002;28;20025;-75
2022/07/22 00:30:49;;;;;;;13.57;3.13;;;;;;;21.37;59.54;102176.34;5027805;28;20029;-75
2022/07/22 00:33:14;;;;;;;12.57;2.38;;;;;;;21.98;58.04;102172.03;5026950;28;20042;-75
2022/07/22 00:35:40;;;;;;;8.60;2.38;;;;;;;22.52;55.76;102168.63;5027608;28;20041;-74
2022/07/22 00:38:05;;;;;;;11.15;3.03;;;;;;;22.20;56.68;102169.91;5030779;28;20045;-76
2022/07/22 00:40:30;;;;;;;8.82;2.38;;;;;;;22.37;56.58;102165.00;5027367;28;20061;-77
2022/07/22 00:42:56;;;;;;;9.38;3.55;;;;;;;22.44;55.58;102163.69;5037721;28;20029;-76
2022/07/22 00:45:21;;;;;;;13.18;2.30;;;;;;;22.39;55.60;102154.59;5050202;28;20052;-76
2022/07/22 00:47:47;;;;;;;9.10;2.58;;;;;;;22.23;56.99;102159.22;5050550;28;20040;-75
2022/07/22 00:50:14;;;;;;;13.18;2.42;;;;;;;22.16;57.54;102160.59;5050401;28;20165;-76
2022/07/22 00:52:42;;;;;;;7.47;2.05;;;;;;;21.66;57.86;102174.91;5049187;28;20021;-75
2022/07/22 00:55:08;;;;;;;17.05;2.80;;;;;;;21.88;57.59;102161.06;5030737;28;20049;-75
2022/07/22 00:57:33;;;;;;;8.45;2.10;;;;;;;21.46;58.72;102169.31;5029905;28;20501;-75
2022/07/22 00:59:59;;;;;;;11.95;2.75;;;;;;;21.83;58.39;102168.16;5030234;28;20041;-76
2022/07/22 01:02:25;;;;;;;10.50;2.42;;;;;;;21.80;58.26;102167.81;5030460;28;20272;-77
2022/07/22 01:04:50;;;;;;;10.43;3.05;;;;;;;21.88;58.07;102170.09;5018952;28;20045;-75
2022/07/22 01:07:16;;;;;;;9.52;2.00;;;;;;;21.42;59.62;102171.75;5011061;28;20073;-76
2022/07/22 01:09:45;;;;;;;14.80;2.97;;;;;;;21.86;58.38;102166.78;5010118;28;20046;-75
2022/07/22 01:12:11;;;;;;;18.77;3.25;;;;;;;21.48;59.07;102175.34;5017854;28;20328;-76
2022/07/22 01:14:37;;;;;;;13.18;3.15;;;;;;;22.08;57.84;102166.59;5029471;28;20033;-73
2022/07/22 01:17:03;;;;;;;10.40;2.55;;;;;;;21.61;58.97;102172.13;5030103;28;20099;-76
2022/07/22 01:19:28;;;;;;;11.15;2.60;;;;;;;21.43;59.69;102170.66;5030237;28;20033;-76
2022/07/22 01:21:54;;;;;;;11.75;3.35;;;;;;;21.74;58.97;102177.94;5030478;28;20069;-76
2022/07/22 01:24:20;;;;;;;14.43;2.90;;;;;;;21.41;59.50;102172.00;5029651;28;20042;-74
2022/07/22 01:26:45;;;;;;;15.73;3.05;;;;;;;21.87;58.50;102181.31;5029356;28;20394;-75
2022/07/22 01:29:10;;;;;;;15.38;2.75;;;;;;;21.95;58.23;102183.53;5029632;28;20033;-75
2022/07/22 01:31:36;;;;;;;17.45;2.80;;;;;;;21.59;59.01;102172.41;5029985;28;20033;-75
2022/07/22 01:34:01;;;;;;;9.00;2.60;;;;;;;21.89;57.82;102171.75;5030184;28;20033;-75
2022/07/22 01:36:27;;;;;;;12.93;3.20;;;;;;;21.88;57.76;102172.03;5029970;28;20052;-76
2022/07/22 01:38:52;;;;;;;9.63;2.17;;;;;;;21.44;59.10;102174.22;5035569;28;20480;-76
2022/07/22 01:41:18;;;;;;;13.77;2.47;;;;;;;22.03;57.65;102172.91;5029423;28;20045;-77
2022/07/22 01:43:43;;;;;;;20.63;4.45;;;;;;;22.14;56.97;102162.78;5029378;28;20076;-75
2022/07/22 01:46:09;;;;;;;9.73;3.22;;;;;;;22.39;56.32;102171.88;5030129;28;20030;-75
2022/07/22 01:48:34;;;;;;;8.82;2.80;;;;;;;22.28;56.62;102169.38;5029192;28;20095;-77
2022/07/22 01:51:00;;;;;;;16.00;3.45;;;;;;;22.42;56.54;102167.78;5029271;28;20155;-76
2022/07/22 01:53:25;;;;;;;9.18;2.00;;;;;;;22.64;55.32;102160.16;5028731;28;20041;-76
2022/07/22 01:55:51;;;;;;;11.38;2.97;;;;;;;22.51;56.41;102166.97;5029195;28;20048;-77
2022/07/22 01:58:17;;;;;;;13.10;2.72;;;;;;;22.30;56.16;102162.56;5030275;28;20470;-76
2022/07/22 02:00:43;;;;;;;9.30;2.85;;;;;;;22.37;55.70;102156.78;5029097;28;20037;-76
2022/07/22 02:03:10;;;;;;;10.40;2.58;;;;;;;22.30;55.74;102156.25;5029277;28;20034;-75
2022/07/22 02:05:36;;;;;;;10.43;2.17;;;;;;;22.69;55.25;102154.66;5028828;28;20037;-75
2022/07/22 02:08:03;;;;;;;9.77;3.67;;;;;;;23.02;54.21;102162.31;5029153;28;20037;-76
2022/07/22 02:10:29;;;;;;;13.68;2.42;;;;;;;22.63;55.39;102148.38;5029106;28;20528;-74
2022/07/22 02:12:56;;;;;;;9.43;2.55;;;;;;;21.97;57.30;102152.06;5029213;28;20033;-76
2022/07/22 02:15:22;;;;;;;8.25;2.20;;;;;;;21.67;57.71;102166.41;5028727;28;20056;-76
2022/07/22 02:17:47;;;;;;;7.50;2.22;;;;;;;22.15;56.23;102157.03;5028930;28;20144;-75
2022/07/22 02:20:13;;;;;;;6.15;2.38;;;;;;;22.24;56.26;102162.81;5029115;28;20038;-75
2022/07/22 02:22:38;;;;;;;9.32;2.50;;;;;;;21.62;57.37;102154.63;5028542;28;20033;-74
2022/07/22 02:25:04;;;;;;;12.65;2.67;;;;;;;21.37;58.37;102149.84;5029221;28;20440;-75
2022/07/22 02:27:29;;;;;;;10.13;2.20;;;;;;;21.81;56.91;102153.94;5028478;28;20025;-76
2022/07/22 02:29:55;;;;;;;13.63;3.13;;;;;;;22.46;55.12;102153.28;5029131;28;20045;-74
2022/07/22 02:32:20;;;;;;;15.27;2.10;;;;;;;22.82;54.18;102156.84;5029251;28;20311;-75
2022/07/22 02:34:46;;;;;;;12.50;2.28;;;;;;;22.37;54.82;102148.56;5028441;28;20040;-75
2022/07/22 02:37:11;;;;;;;14.85;3.78;;;;;;;22.88;53.38;102154.97;5029394;28;20457;-74
2022/07/22 02:39:37;;;;;;;6.20;1.95;;;;;;;22.86;54.00;102152.47;5028528;28;20049;-76
2022/07/22 02:42:02;;;;;;;14.25;2.55;;;;;;;22.55;54.53;102148.06;5028190;28;20516;-75
2022/07/22 02:44:27;;;;;;;8.95;2.65;;;;;;;22.59;54.53;102150.00;5027735;28;20102;-74
2022/07/22 02:46:53;;;;;;;10.55;1.80;;;;;;;22.88;54.08;102146.72;5028620;28;20034;-73
2022/07/22 02:49:18;;;;;;;11.38;3.70;;;;;;;22.13;56.04;102152.94;5028704;28;20507;-74
2022/07/22 02:51:43;;;;;;;10.15;2.30;;;;;;;22.94;53.81;102149.16;5028856;28;20041;-75
2022/07/22 02:54:09;;;;;;;11.60;2.15;;;;;;;23.04;53.00;102149.16;5028424;28;20031;-75
2022/07/22 02:56:34;;;;;;;8.52;2.50;;;;;;;22.82;53.50;102139.59;5028090;28;20108;-74
2022/07/22 02:59:01;;;;;;;5.72;1.60;;;;;;;22.78;53.46;102133.81;5028255;28;20099;-75
2022/07/22 03:01:26;;;;;;;11.57;2.53;;;;;;;21.51;56.86;102144.72;5028566;28;20073;-76
2022/07/22 03:03:52;;;;;;;9.82;2.35;;;;;;;22.08;56.32;102133.72;5027023;28;20457;-73
2022/07/22 03:06:17;;;;;;;10.63;2.30;;;;;;;22.15;55.36;102140.59;5028276;28;20037;-75
2022/07/22 03:08:43;;;;;;;7.63;2.25;;;;;;;22.73;54.34;102139.31;5028019;28;20448;-75
2022/07/22 03:11:08;;;;;;;8.27;2.30;;;;;;;22.60;54.40;102137.13;5028096;28;20037;-76
2022/07/22 03:13:33;;;;;;;9.40;1.70;;;;;;;22.01;55.45;102155.06;5027380;28;20028;-76
2022/07/22 03:15:59;;;;;;;8.05;2.30;;;;;;;22.80;54.16;102142.59;5028206;28;20049;-75
2022/07/22 03:18:24;;;;;;;7.80;2.00;;;;;;;22.97;53.12;102143.16;5028067;28;20038;-76
2022/07/22 03:20:50;;;;;;;10.40;2.00;;;;;;;22.82;54.17;102142.34;5028264;28;20128;-75
2022/07/22 03:23:15;;;;;;;8.43;2.17;;;;;;;23.06;53.51;102151.63;5027936;28;20077;-74
2022/07/22 03:25:41;;;;;;;10.48;2.72;;;;;;;22.75;54.83;102142.63;5027703;28;20037;-74
2022/07/22 03:28:06;;;;;;;11.57;2.20;;;;;;;22.56;54.45;102139.56;5027902;28;20025;-74
2022/07/22 03:30:32;;;;;;;10.30;2.05;;;;;;;23.09;53.27;102148.34;5027359;28;20056;-75
2022/07/22 03:32:57;;;;;;;4.57;1.70;;;;;;;23.22;52.42;102150.50;5027707;28;20128;-75
2022/07/22 03:35:23;;;;;;;7.75;2.03;;;;;;;23.29;52.65;102149.09;5027595;28;20498;-76
2022/07/22 03:37:49;;;;;;;20.02;3.40;;;;;;;23.26;52.59;102151.59;5028079;28;20567;-74
2022/07/22 03:40:14;;;;;;;10.13;2.55;;;;;;;23.40;52.60;102153.53;5028426;28;20076;-74
2022/07/22 03:42:41;;;;;;;7.78;3.28;;;;;;;23.19;52.88;102143.66;5027121;28;20521;-76
2022/07/22 03:45:07;;;;;;;12.50;3.13;;;;;;;23.43;52.73;102147.47;5027795;28;20115;-74
2022/07/22 03:47:33;;;;;;;5.25;1.92;;;;;;;23.23;52.76;102152.16;5027714;28;20501;-75
2022/07/22 03:49:58;;;;;;;6.30;1.88;;;;;;;23.46;52.38;102141.44;5027337;28;20041;-74
2022/07/22 03:52:24;;;;;;;8.77;2.20;;;;;;;23.51;52.75;102143.31;5028292;28;20033;-76
2022/07/22 03:54:50;;;;;;;8.82;2.22;;;;;;;23.41;52.78;102148.84;5027567;28;20029;-75
2022/07/22 03:57:15;;;;;;;7.95;2.42;;;;;;;23.54;52.71;102143.59;5027141;28;20045;-75
2022/07/22 03:59:41;;;;;;;11.45;1.90;;;;;;;23.63;52.04;102151.22;5026985;28;20131;-74
2022/07/22 04:02:06;;;;;;;15.63;3.05;;;;;;;23.21;52.87;102154.38;5025525;28;20384;-75
2022/07/22 04:04:31;;;;;;;8.27;2.67;;;;;;;23.34;52.18;102162.88;5018127;28;20074;-76
2022/07/22 04:06:57;;;;;;;10.48;2.10;;;;;;;23.15;52.65;102159.03;5026776;28;20042;-75
2022/07/22 04:09:22;;;;;;;21.55;2.88;;;;;;;23.28;52.57;102161.19;5027484;28;20511;-76
2022/07/22 04:11:50;;;;;;;13.43;2.85;;;;;;;22.66;53.40;102166.19;5027360;28;20038;-76
2022/07/22 04:14:16;;;;;;;12.73;3.65;;;;;;;22.98;52.85;102177.69;5028494;28;20643;-74
2022/07/22 04:16:43;;;;;;;10.35;2.25;;;;;;;23.13;52.91;102161.22;5031943;28;20064;-74
2022/07/22 04:19:09;;;;;;;10.65;2.38;;;;;;;22.79;53.74;102167.56;5031740;28;20468;-74
2022/07/22 04:21:35;;;;;;;5.22;1.92;;;;;;;22.94;53.97;102170.31;5030793;28;20438;-76
2022/07/22 04:24:00;;;;;;;5.00;2.00;;;;;;;22.92;53.76;102164.28;5030547;28;20064;-74
2022/07/22 04:26:26;;;;;;;12.52;2.65;;;;;;;22.77;54.35;102167.00;5030511;28;20033;-74
2022/07/22 04:28:51;;;;;;;14.43;2.60;;;;;;;22.95;53.06;102159.06;5031292;28;20029;-76
2022/07/22 04:31:17;;;;;;;6.50;2.13;;;;;;;22.82;53.29;102162.34;5031336;28;20045;-76
2022/07/22 04:33:42;;;;;;;6.20;2.15;;;;;;;22.51;54.39;102164.22;5030542;28;20063;-74
2022/07/22 04:36:08;;;;;;;11.70;2.08;;;;;;;22.93;52.94;102168.66;5031166;28;20508;-74
2022/07/22 04:38:33;;;;;;;11.07;2.15;;;;;;;23.18;52.22;102165.88;5030402;28;20049;-76
2022/07/22 04:40:58;;;;;;;9.02;2.30;;;;;;;22.94;52.36;102165.63;5030352;28;20041;-74
2022/07/22 04:43:24;;;;;;;6.85;1.73;;;;;;;23.29;51.74;102160.09;5030441;28;20022;-75
2022/07/22 04:45:50;;;;;;;6.00;1.83;;;;;;;23.42;51.27;102154.06;5030801;28;20041;-74
2022/07/22 04:48:16;;;;;;;5.65;1.80;;;;;;;23.38;51.40;102160.38;5030345;28;20290;-76
2022/07/22 04:50:41;;;;;;;24.08;2.65;;;;;;;23.48;50.47;102154.88;5030093;28;20124;-74
2022/07/22 04:53:07;;;;;;;5.63;1.55;;;;;;;22.65;51.04;102157.16;5030487;28;20032;-75
2022/07/22 04:55:32;;;;;;;8.88;1.98;;;;;;;23.02;51.49;102151.34;5030840;28;20041;-75
2022/07/22 04:57:58;;;;;;;6.00;2.17;;;;;;;23.00;50.83;102150.81;4995827;28;20037;-74
2022/07/22 05:00:24;;;;;;;5.18;1.67;;;;;;;23.11;50.17;102143.41;5030773;28;20386;-76
2022/07/22 05:02:49;;;;;;;7.43;1.48;;;;;;;22.99;50.42;102148.34;5030294;28;20041;-75
2022/07/22 05:05:15;;;;;;;9.63;1.73;;;;;;;23.11;50.60;102141.50;5030259;28;20034;-75
2022/07/22 05:07:40;;;;;;;9.60;1.70;;;;;;;23.18;50.33;102144.75;5029663;28;20033;-76
2022/07/22 05:10:06;;;;;;;4.63;1.40;;;;;;;23.05;51.33;102142.59;5030838;28;20037;-76
2022/07/22 05:12:32;;;;;;;12.07;1.70;;;;;;;23.54;49.83;102145.50;5029745;28;20029;-74
2022/07/22 05:14:57;;;;;;;8.45;2.90;;;;;;;23.06;49.98;102154.38;5029937;28;20050;-76
2022/07/22 05:17:23;;;;;;;8.95;3.17;;;;;;;23.16;50.30;102154.34;5011303;28;20045;-76
2022/07/22 05:19:48;;;;;;;6.47;1.40;;;;;;;23.33;49.95;102154.91;5030598;28;20508;-76
2022/07/22 05:22:14;;;;;;;8.75;1.83;;;;;;;23.32;49.10;102151.34;5030353;28;20405;-76
2022/07/22 05:24:40;;;;;;;5.97;1.90;;;;;;;23.27;49.24;102156.78;5029524;28;20113;-74
2022/07/22 05:27:05;;;;;;;5.45;1.30;;;;;;;23.15;49.66;102155.47;5028886;28;20505;-77
2022/07/22 05:29:30;;;;;;;6.80;1.98;;;;;;;22.74;49.34;102160.16;5029774;28;20034;-76
2022/07/22 05:31:56;;;;;;;3.97;1.38;;;;;;;23.05;49.41;102164.53;5029841;28;20041;-74
2022/07/22 05:34:22;;;;;;;7.65;1.92;;;;;;;22.85;50.48;102158.22;5029971;28;20385;-76
2022/07/22 05:36:47;;;;;;;7.38;1.98;;;;;;;23.07;49.88;102165.09;5030417;28;20038;-75
2022/07/22 05:39:12;;;;;;;8.63;1.52;;;;;;;22.73;50.37;102160.41;5029615;28;20040;-75
2022/07/22 05:41:38;;;;;;;6.13;2.40;;;;;;;23.12;50.14;102159.56;5029265;28;20033;-75
2022/07/22 05:44:04;;;;;;;7.43;1.70;;;;;;;23.61;49.54;102164.41;5029419;28;20042;-75
2022/07/22 05:46:30;;;;;;;5.90;1.35;;;;;;;23.66;49.46;102159.75;5029957;28;20464;-74
2022/07/22 05:48:55;;;;;;;5.22;1.80;;;;;;;23.33;49.62;102163.94;5029262;28;20025;-74
2022/07/22 05:51:21;;;;;;;8.20;1.75;;;;;;;23.44;48.92;102162.00;5030061;28;20038;-75
2022/07/22 05:53:46;;;;;;;7.43;2.05;;;;;;;23.29;49.39;102164.78;5030182;28;20029;-77
2022/07/22 05:56:12;;;;;;;10.13;1.60;;;;;;;23.67;48.63;102166.03;5029719;28;20038;-75
2022/07/22 05:58:38;;;;;;;9.38;1.67;;;;;;;23.78;48.54;102167.66;5029312;28;20024;-75
2022/07/22 06:01:04;;;;;;;6.32;1.48;;;;;;;23.68;48.20;102159.47;5029860;28;20037;-76
2022/07/22 06:03:30;;;;;;;12.23;2.30;;;;;;;23.64;48.43;102158.38;5028755;28;20037;-74
2022/07/22 06:05:55;;;;;;;7.82;1.42;;;;;;;23.55;48.21;102166.34;5029193;28;20037;-76
2022/07/22 06:08:20;;;;;;;4.28;1.52;;;;;;;23.63;47.83;102157.53;5029734;28;20515;-77
2022/07/22 06:10:46;;;;;;;10.27;1.48;;;;;;;23.69;47.23;102166.56;5029412;28;20087;-76
2022/07/22 06:13:11;;;;;;;6.55;1.52;;;;;;;23.88;47.70;102167.63;5028899;28;20042;-75
2022/07/22 06:15:37;;;;;;;5.15;1.45;;;;;;;23.49;48.02;102171.03;5034356;28;20041;-76
2022/07/22 06:18:02;;;;;;;7.55;1.70;;;;;;;23.79;48.16;102177.53;5048716;28;20040;-76
2022/07/22 06:20:28;;;;;;;11.35;1.55;;;;;;;23.84;47.44;102169.28;5014186;28;20092;-77
2022/07/22 06:22:53;;;;;;;5.95;2.95;;;;;;;23.93;47.06;102168.41;5028503;28;20038;-76
2022/07/22 06:25:18;;;;;;;8.23;1.50;;;;;;;24.08;47.15;102173.03;5011375;28;20496;-75
2022/07/22 06:27:44;;;;;;;9.07;1.33;;;;;;;23.98;46.45;102168.38;5029040;28;20040;-75
2022/07/22 06:30:10;;;;;;;3.35;1.45;;;;;;;24.09;46.59;102163.69;5028706;28;20163;-76
2022/07/22 06:32:35;;;;;;;5.72;1.67;;;;;;;23.70;47.07;102169.06;5028994;28;20628;-76
2022/07/22 06:35:01;;;;;;;6.78;1.38;;;;;;;23.79;46.77;102166.53;5028769;28;20156;-75
2022/07/22 06:37:27;;;;;;;3.58;1.30;;;;;;;23.77;46.74;102166.00;5028423;28;20135;-75
2022/07/22 06:39:52;;;;;;;8.13;1.50;;;;;;;23.32;47.16;102159.56;5029310;28;20037;-76
2022/07/22 06:42:18;;;;;;;6.05;1.63;;;;;;;23.92;45.74;102161.25;5038162;28;20397;-77
2022/07/22 06:44:43;;;;;;;6.65;1.38;;;;;;;23.89;46.64;102161.84;5048248;28;20044;-76
2022/07/22 06:47:09;;;;;;;2.70;0.93;;;;;;;24.19;45.77;102160.88;5048837;28;20040;-76
2022/07/22 06:49:34;;;;;;;6.90;2.13;;;;;;;24.36;45.96;102164.91;5039271;28;20033;-76
2022/07/22 06:52:01;;;;;;;2.92;1.48;;;;;;;24.40;45.92;102163.22;5028866;28;20056;-75
2022/07/22 06:54:27;;;;;;;4.55;1.23;;;;;;;24.48;46.16;102160.97;5028306;28;20048;-77
2022/07/22 06:56:52;;;;;;;3.83;1.17;;;;;;;24.63;45.71;102163.63;5028306;28;20040;-75
2022/07/22 06:59:18;;;;;;;4.75;1.23;;;;;;;24.49;44.35;102160.66;5028384;28;20041;-75
2022/07/22 07:01:43;;;;;;;2.53;1.13;;;;;;;24.67;44.67;102156.44;5028443;28;20044;-76
2022/07/22 07:04:09;;;;;;;4.85;1.30;;;;;;;24.84;44.87;102160.44;5029080;28;20022;-76
2022/07/22 07:06:34;;;;;;;7.82;1.50;;;;;;;25.05;44.77;102155.56;5028298;28;20033;-76
2022/07/22 07:09:01;;;;;;;3.83;1.60;;;;;;;24.90;45.50;102156.50;5028401;28;20088;-76
2022/07/22 07:11:26;;;;;;;5.53;1.73;;;;;;;24.92;45.26;102154.28;5028039;28;20061;-75
2022/07/22 07:13:52;;;;;;;14.20;1.50;;;;;;;24.72;43.59;102160.00;5028459;28;20132;-75
2022/07/22 07:16:18;;;;;;;9.68;1.20;;;;;;;24.83;42.34;102160.72;5028694;28;20056;-73
2022/07/22 07:18:43;;;;;;;9.00;1.50;;;;;;;24.70;43.62;102167.69;5027042;28;20033;-75
2022/07/22 07:21:09;;;;;;;4.63;1.08;;;;;;;24.83;43.85;102163.47;5027969;28;20060;-74
2022/07/22 07:23:34;;;;;;;3.90;1.08;;;;;;;24.69;43.75;102165.19;5027824;28;20045;-75
2022/07/22 07:25:59;;;;;;;7.50;1.50;;;;;;;24.58;44.60;102149.91;5027891;28;20371;-75
2022/07/22 07:28:25;;;;;;;5.30;1.40;;;;;;;24.59;45.42;102151.56;5028779;28;20072;-76
2022/07/22 07:30:50;;;;;;;2.35;1.23;;;;;;;24.16;44.80;102150.44;5028267;28;20034;-75
2022/07/22 07:33:16;;;;;;;7.50;1.42;;;;;;;24.13;45.99;102159.28;5028028;28;20029;-75
2022/07/22 07:35:41;;;;;;;5.25;1.48;;;;;;;23.50;47.09;102158.97;5028719;28;20041;-74
2022/07/22 07:38:07;;;;;;;5.60;1.30;;;;;;;23.95;45.07;102162.63;5029415;28;20041;-74
2022/07/22 07:40:32;;;;;;;7.47;1.10;;;;;;;24.21;45.05;102158.69;4992780;28;20515;-75
2022/07/22 07:42:58;;;;;;;3.47;1.00;;;;;;;24.08;44.55;102156.53;5027835;28;20096;-74
2022/07/22 07:45:24;;;;;;;5.47;1.80;;;;;;;24.70;43.82;102162.19;5027777;28;20505;-75
2022/07/22 07:47:49;;;;;;;2.47;0.90;;;;;;;23.52;44.68;102164.19;5029468;28;20037;-77
2022/07/22 07:50:15;;;;;;;5.53;1.23;;;;;;;24.21;44.35;102170.50;5031334;28;20505;-76
2022/07/22 07:52:43;;;;;;;2.55;1.00;;;;;;;23.76;45.78;102173.44;5031163;28;20041;-74
2022/07/22 07:55:09;;;;;;;6.93;2.08;;;;;;;24.02;44.25;102168.66;5014521;28;20440;-74
2022/07/22 07:57:35;;;;;;;9.00;1.33;;;;;;;23.59;44.92;102167.44;5031134;28;20408;-74
2022/07/22 08:00:04;;;;;;;3.75;1.10;;;;;;;23.97;43.55;102166.75;5031232;28;20044;-75
2022/07/22 08:02:30;;;;;;;4.82;1.40;;;;;;;24.20;43.81;102171.59;5030544;28;20037;-76
2022/07/22 08:04:55;;;;;;;4.00;1.10;;;;;;;24.29;43.92;102171.81;5029768;28;20041;-77
2022/07/22 08:07:21;;;;;;;4.95;1.00;;;;;;;24.12;44.96;102165.84;5029665;28;20017;-77
2022/07/22 08:09:46;;;;;;;3.40;1.40;;;;;;;24.20;43.65;102170.75;5012541;28;20675;-76
2022/07/22 08:12:12;;;;;;;9.38;1.40;;;;;;;24.34;43.70;102182.78;5029931;28;20164;-77
2022/07/22 08:14:37;;;;;;;6.15;1.25;;;;;;;24.05;44.22;102170.84;5030857;28;20041;-77
2022/07/22 08:17:03;;;;;;;4.40;1.20;;;;;;;24.14;43.94;102177.38;5031183;28;20441;-74
2022/07/22 08:19:28;;;;;;;6.68;1.77;;;;;;;23.88;44.33;102181.34;5030057;28;20041;-74
2022/07/22 08:21:54;;;;;;;5.85;1.00;;;;;;;23.14;43.90;102173.84;5030850;28;20034;-75
2022/07/22 08:24:19;;;;;;;8.25;1.23;;;;;;;23.54;44.87;102165.56;5030364;28;20049;-75
2022/07/22 08:26:44;;;;;;;4.50;1.38;;;;;;;23.25;46.15;102169.97;5030101;28;20037;-75
2022/07/22 08:29:10;;;;;;;13.63;1.40;;;;;;;23.79;45.01;102172.03;5030463;28;20038;-74
2022/07/22 08:31:36;;;;;;;3.97;0.98;;;;;;;24.17;44.25;102174.91;5011822;28;20041;-75
2022/07/22 08:34:03;;;;;;;4.93;1.80;;;;;;;24.30;43.88;102176.19;5030605;28;20025;-75
2022/07/22 08:36:28;;;;;;;7.22;1.75;;;;;;;24.45;43.61;102180.78;5030076;28;20037;-75
2022/07/22 08:38:54;;;;;;;9.63;1.50;;;;;;;24.48;43.02;102181.03;5030417;28;20049;-75
2022/07/22 08:41:21;;;;;;;5.38;1.10;;;;;;;24.48;43.58;102181.03;5029816;28;20053;-74
2022/07/22 08:43:47;;;;;;;3.17;0.80;;;;;;;23.83;44.50;102184.94;5027709;28;20392;-73
2022/07/22 08:46:13;;;;;;;4.18;1.10;;;;;;;24.20;42.62;102181.75;5013072;28;20026;-75
2022/07/22 08:48:39;;;;;;;2.78;0.95;;;;;;;23.24;43.65;102182.06;5030323;28;20021;-76
2022/07/22 08:51:06;;;;;;;4.85;1.13;;;;;;;23.71;42.71;102187.16;5030174;28;20068;-74
2022/07/22 08:53:31;;;;;;;2.78;1.05;;;;;;;24.27;41.93;102182.28;5028713;28;20033;-75
2022/07/22 08:55:58;;;;;;;5.63;1.10;;;;;;;23.81;42.76;102180.81;5029334;28;20553;-75
2022/07/22 08:58:24;;;;;;;3.47;0.88;;;;;;;24.42;42.23;102179.41;5029942;28;20029;-75
2022/07/22 09:01:04;;;;;;;3.83;1.15;;;;;;;24.52;42.95;102179.34;5028974;28;20032;-76
2022/07/22 09:03:29;;;;;;;3.75;0.82;;;;;;;24.97;40.95;102173.50;5028900;28;20025;-76
2022/07/22 09:05:55;;;;;;;2.97;1.20;;;;;;;25.05;41.22;102175.66;5029876;28;20552;-76
2022/07/22 09:08:21;;;;;;;3.08;1.10;;;;;;;25.08;40.42;102177.81;5030124;28;20034;-75
2022/07/22 09:10:47;;;;;;;9.30;1.73;;;;;;;24.99;40.14;102179.56;5026745;28;20040;-75
2022/07/22 09:13:16;;;;;;;3.50;1.48;;;;;;;25.25;39.50;102180.97;5029311;28;20060;-75
2022/07/22 09:15:50;;;;;;;2.28;0.90;;;;;;;25.33;39.60;102175.91;5028572;28;20048;-77
2022/07/22 09:18:16;;;;;;;3.83;1.05;;;;;;;25.65;40.99;102182.44;5028568;28;20413;-75
2022/07/22 09:20:43;;;;;;;2.88;1.30;;;;;;;25.59;40.65;102178.13;5029295;28;20057;-75
2022/07/22 09:23:14;;;;;;;5.75;1.60;;;;;;;25.98;40.03;102184.22;5028309;28;20558;-77
2022/07/22 09:25:41;;;;;;;9.27;2.13;;;;;;;25.93;40.10;102175.22;5029105;28;20037;-74
2022/07/22 09:28:06;;;;;;;3.53;0.73;;;;;;;26.13;38.44;102163.97;5029531;28;20032;-76
2022/07/22 09:30:34;;;;;;;4.75;0.93;;;;;;;26.29;39.50;102164.56;5027569;28;20037;-73
2022/07/22 09:32:59;;;;;;;3.20;1.23;;;;;;;26.36;39.03;102165.81;5025822;28;20947;-75
2022/07/22 09:35:25;;;;;;;4.30;1.27;;;;;;;26.44;38.77;102158.81;5023777;28;20029;-76
2022/07/22 09:38:03;;;;;;;7.57;1.20;;;;;;;26.43;38.33;102158.00;5026233;28;20626;-76
2022/07/22 09:40:31;;;;;;;6.22;1.08;;;;;;;26.59;37.52;102153.06;5025176;28;20029;-75
2022/07/22 09:42:59;;;;;;;3.47;0.98;;;;;;;26.51;37.91;102157.34;5025580;28;20041;-76
2022/07/22 09:45:27;;;;;;;7.35;1.02;;;;;;;26.73;38.22;102152.00;5025371;28;20136;-77
2022/07/22 09:47:54;;;;;;;3.47;1.42;;;;;;;26.95;37.45;102151.34;5025959;28;20501;-78
2022/07/22 09:50:29;;;;;;;9.82;2.38;;;;;;;26.74;38.95;102147.31;5026122;28;20041;-77
2022/07/22 09:52:56;;;;;;;6.18;0.88;;;;;;;27.02;37.84;102156.50;5024829;28;20042;-76
2022/07/22 09:55:24;;;;;;;8.75;0.98;;;;;;;26.82;36.06;102158.50;5025242;28;20085;-77
2022/07/22 09:57:51;;;;;;;2.72;1.45;;;;;;;27.13;37.18;102146.91;5022692;28;20041;-77
2022/07/22 10:00:20;;;;;;;3.85;1.08;;;;;;;27.25;36.52;102145.28;5025828;28;20034;-76
2022/07/22 10:03:05;;;;;;;5.50;0.98;;;;;;;27.10;36.06;102142.00;5005383;28;20465;-78
2022/07/22 10:05:36;;;;;;;1.80;1.08;;;;;;;27.67;36.30;102138.69;5023311;28;20277;-76
2022/07/22 10:08:04;;;;;;;4.80;1.20;;;;;;;27.67;35.74;102146.97;5024044;28;20428;-76
2022/07/22 10:10:31;;;;;;;4.18;1.20;;;;;;;28.02;35.27;102137.94;5022760;28;20030;-77
2022/07/22 10:12:58;;;;;;;4.43;0.95;;;;;;;28.08;35.70;102139.47;5019412;28;20064;-79
2022/07/22 10:15:26;;;;;;;4.72;0.88;;;;;;;28.21;34.58;102135.81;5018306;28;20034;-77
2022/07/22 10:17:53;;;;;;;4.03;1.02;;;;;;;27.49;35.71;102132.16;5017512;28;20513;-78
2022/07/22 10:20:29;;;;;;;3.63;0.90;;;;;;;27.52;36.76;102139.81;5021982;28;20030;-76
2022/07/22 10:22:57;;;;;;;2.90;0.77;;;;;;;27.41;35.98;102140.31;5020123;28;20045;-77
2022/07/22 10:25:25;;;;;;;2.65;1.00;;;;;;;27.27;36.52;102144.97;5006949;28;20030;-77
2022/07/22 10:27:57;;;;;;;3.35;0.80;;;;;;;26.13;37.30;102139.16;5023032;28;20446;-75
2022/07/22 10:30:30;;;;;;;5.57;0.98;;;;;;;26.93;36.24;102148.91;5024143;28;20042;-75
2022/07/22 10:33:02;;;;;;;6.82;1.23;;;;;;;26.36;36.63;102152.03;5024196;28;20053;-75
2022/07/22 10:35:28;;;;;;;4.90;1.10;;;;;;;26.46;35.46;102142.78;5022902;28;20052;-76
2022/07/22 10:37:56;;;;;;;4.78;1.00;;;;;;;26.72;35.96;102141.28;5020539;28;20045;-75
2022/07/22 10:40:28;;;;;;;3.05;0.95;;;;;;;26.78;36.19;102148.34;5023183;28;20040;-74
2022/07/22 10:43:11;;;;;;;7.15;1.50;;;;;;;26.97;36.49;102132.56;5021224;28;20041;-74
2022/07/22 10:46:09;;;;;;;4.53;0.93;;;;;;;26.80;36.39;102132.31;5023333;28;20049;-75
2022/07/22 10:48:37;;;;;;;7.35;1.30;;;;;;;26.77;35.55;102124.66;4924595;29;20071;-76
2022/07/22 10:51:17;;;;;;;3.00;1.10;;;;;;;26.68;36.24;102129.19;4924152;29;20039;-74
2022/07/22 10:53:51;;;;;;;6.80;0.97;;;;;;;26.29;36.76;102142.50;4923897;29;20036;-76
2022/07/22 10:56:37;;;;;;;5.63;1.10;;;;;;;26.16;37.46;102140.50;4924286;29;20486;-76
2022/07/22 10:59:13;;;;;;;8.38;2.13;;;;;;;26.68;36.94;102142.97;4921599;29;20071;-76
2022/07/22 11:01:42;;;;;;;6.13;1.35;;;;;;;25.75;38.29;102149.28;4920482;29;20047;-76
2022/07/22 11:04:12;;;;;;;3.25;1.00;;;;;;;25.31;39.44;102147.88;4905583;29;20026;-77
2022/07/22 11:06:38;;;;;;;3.53;0.85;;;;;;;24.88;39.03;102145.00;4918813;29;20142;-77
2022/07/22 11:09:07;;;;;;;5.65;1.15;;;;;;;25.46;38.78;102142.22;4918197;29;20230;-69
2022/07/22 11:11:56;;;;;;;4.28;0.70;;;;;;;25.45;37.92;102143.34;4922605;29;20532;-71
2022/07/22 11:14:30;;;;;;;4.13;0.75;;;;;;;25.33;37.56;102148.41;4870900;29;20049;-71
2022/07/22 11:17:06;;;;;;;2.53;0.63;;;;;;;25.61;37.16;102153.88;4869668;29;20109;-71
2022/07/22 11:19:32;;;;;;;3.80;0.52;;;;;;;25.39;37.92;102142.56;4877925;29;20068;-71